createdAt,value
2018-08-19T00:01:44.286Z,99.90
2018-08-19T00:05:08.406Z,99.90
2018-08-19T00:08:12.821Z,99.90
2018-08-19T00:11:17.343Z,99.90
2018-08-19T00:14:31.126Z,99.90
2018-08-19T00:17:35.587Z,99.90
2018-08-19T00:20:40.352Z,99.90
2018-08-19T00:23:49.737Z,99.90
2018-08-19T00:26:54.547Z,99.90
2018-08-19T00:29:58.743Z,99.90
2018-08-19T00:33:03.320Z,99.90
2018-08-19T00:36:26.559Z,99.90
2018-08-19T00:39:30.973Z,99.90
2018-08-19T00:42:35.196Z,99.90
2018-08-19T00:45:39.467Z,99.90
2018-08-19T00:48:43.657Z,99.90
2018-08-19T00:51:53.077Z,99.90
2018-08-19T00:54:57.191Z,99.90
2018-08-19T00:58:01.585Z,99.90
2018-08-19T01:01:06.181Z,99.90
2018-08-19T01:04:11.909Z,99.90
2018-08-19T01:07:16.300Z,99.90
2018-08-19T01:10:21.379Z,99.90
2018-08-19T01:13:28.544Z,99.90
2018-08-19T01:16:33.344Z,99.90
2018-08-19T01:19:38.261Z,99.90
2018-08-19T01:22:43.703Z,99.90
2018-08-19T01:25:48.382Z,99.90
2018-08-19T01:28:55.076Z,99.90
2018-08-19T01:32:04.025Z,99.90
2018-08-19T01:35:08.465Z,99.90
2018-08-19T01:38:13.050Z,99.90
2018-08-19T01:41:17.370Z,99.90
2018-08-19T01:44:22.091Z,99.90
2018-08-19T01:47:26.404Z,99.90
2018-08-19T01:50:31.131Z,99.90
2018-08-19T01:53:35.501Z,99.90
2018-08-19T01:56:40.239Z,99.90
2018-08-19T01:59:44.637Z,99.90
2018-08-19T02:03:10.498Z,99.90
2018-08-19T02:06:14.752Z,99.90
2018-08-19T02:09:20.471Z,99.90
2018-08-19T02:12:26.923Z,99.90
2018-08-19T02:15:32.451Z,99.90
2018-08-19T02:18:36.665Z,99.90
2018-08-19T02:21:42.342Z,99.90
2018-08-19T02:24:46.764Z,99.90
2018-08-19T02:27:50.925Z,99.90
2018-08-19T02:31:01.370Z,99.90
2018-08-19T02:34:05.758Z,99.90
2018-08-19T02:37:15.419Z,99.90
2018-08-19T02:40:24.324Z,99.90
2018-08-19T02:43:28.823Z,99.90
2018-08-19T02:46:33.754Z,99.90
2018-08-19T02:49:38.058Z,99.90
2018-08-19T02:52:42.401Z,99.90
2018-08-19T02:55:46.838Z,99.90
2018-08-19T02:58:51.510Z,99.90
2018-08-19T03:01:55.856Z,99.90
2018-08-19T03:05:01.553Z,99.90
2018-08-19T03:08:06.070Z,99.90
2018-08-19T03:11:10.429Z,99.90
2018-08-19T03:14:14.633Z,99.90
2018-08-19T03:17:19.172Z,99.90
2018-08-19T03:20:23.612Z,99.90
2018-08-19T03:23:27.863Z,99.90
2018-08-19T03:26:32.710Z,99.90
2018-08-19T03:29:41.173Z,99.90
2018-08-19T03:32:51.076Z,99.90
2018-08-19T03:35:55.304Z,99.90
2018-08-19T03:39:09.819Z,99.90
2018-08-19T03:42:15.840Z,99.90
2018-08-19T03:45:21.129Z,99.90
2018-08-19T03:48:25.514Z,99.90
2018-08-19T03:51:29.889Z,99.90
2018-08-19T03:54:34.323Z,99.90
2018-08-19T03:57:38.864Z,99.90
2018-08-19T04:00:45.395Z,99.90
2018-08-19T04:03:49.722Z,99.90
2018-08-19T04:06:53.962Z,99.90
2018-08-19T04:09:58.101Z,99.90
2018-08-19T04:13:02.378Z,99.90
2018-08-19T04:16:08.875Z,99.90
2018-08-19T04:19:13.478Z,99.90
2018-08-19T04:22:17.647Z,99.90
2018-08-19T04:25:34.762Z,99.90
2018-08-19T04:28:40.445Z,99.90
2018-08-19T04:31:44.758Z,99.90
2018-08-19T04:34:49.296Z,99.90
2018-08-19T04:37:53.560Z,99.90
2018-08-19T04:41:00.285Z,99.90
2018-08-19T04:44:04.804Z,99.90
2018-08-19T04:47:46.136Z,99.90
2018-08-19T04:50:53.135Z,99.90
2018-08-19T04:53:57.775Z,99.90
2018-08-19T04:57:02.016Z,99.90
2018-08-19T05:00:07.411Z,99.90
2018-08-19T05:03:12.604Z,99.90
2018-08-19T05:06:18.135Z,99.90
2018-08-19T05:09:22.660Z,99.90
2018-08-19T05:12:27.477Z,99.90
2018-08-19T05:15:32.650Z,99.90
2018-08-19T05:18:37.288Z,99.90
2018-08-19T05:21:41.976Z,99.90
2018-08-19T05:24:46.836Z,99.90
2018-08-19T05:27:55.649Z,99.90
2018-08-19T05:31:00.287Z,99.90
2018-08-19T05:34:05.120Z,99.90
2018-08-19T05:37:09.983Z,99.90
2018-08-19T05:40:14.428Z,99.90
2018-08-19T05:43:18.696Z,99.90
2018-08-19T05:46:23.364Z,99.90
2018-08-19T05:49:29.620Z,99.90
2018-08-19T05:52:34.425Z,99.90
2018-08-19T05:55:39.138Z,99.90
2018-08-19T05:58:43.623Z,99.90
2018-08-19T06:01:48.328Z,99.90
2018-08-19T06:04:52.957Z,99.90
2018-08-19T06:08:01.994Z,99.90
2018-08-19T06:11:06.568Z,99.90
2018-08-19T06:14:11.280Z,99.90
2018-08-19T06:17:15.916Z,99.90
2018-08-19T06:20:20.527Z,99.90
2018-08-19T06:23:25.063Z,99.90
2018-08-19T06:26:34.034Z,99.90
2018-08-19T06:29:52.515Z,99.90
2018-08-19T06:32:56.976Z,99.90
2018-08-19T06:36:01.756Z,99.90
2018-08-19T06:39:08.337Z,99.90
2018-08-19T06:42:13.690Z,99.90
2018-08-19T06:45:18.529Z,99.90
2018-08-19T06:48:23.241Z,99.90
2018-08-19T06:51:28.033Z,99.90
2018-08-19T06:54:32.635Z,99.90
2018-08-19T06:57:37.372Z,97.20
2018-08-19T07:00:42.269Z,94.40
2018-08-19T07:03:51.446Z,93.10
2018-08-19T07:06:56.132Z,91.10
2018-08-19T07:10:00.915Z,90.00
2018-08-19T07:13:07.626Z,86.20
2018-08-19T07:16:12.197Z,82.50
2018-08-19T07:19:17.299Z,79.50
2018-08-19T07:22:22.863Z,75.00
2018-08-19T07:25:27.371Z,77.50
2018-08-19T07:28:32.865Z,79.80
2018-08-19T07:31:37.613Z,78.20
2018-08-19T07:34:42.271Z,80.90
2018-08-19T07:37:47.013Z,77.60
2018-08-19T07:40:51.665Z,78.10
2018-08-19T07:43:56.767Z,78.20
2018-08-19T07:47:01.494Z,78.60
2018-08-19T07:50:06.966Z,79.30
2018-08-19T07:53:11.331Z,79.70
2018-08-19T07:56:15.947Z,77.80
2018-08-19T07:59:20.338Z,78.60
2018-08-19T08:02:27.268Z,78.00
2018-08-19T08:05:36.598Z,70.90
2018-08-19T08:08:40.869Z,69.40
2018-08-19T08:11:45.454Z,70.20
2018-08-19T08:14:52.187Z,68.30
2018-08-19T08:17:57.692Z,66.60
2018-08-19T08:21:12.520Z,67.70
2018-08-19T08:24:17.373Z,68.60
2018-08-19T08:27:23.157Z,70.40
2018-08-19T08:30:29.708Z,64.70
2018-08-19T08:33:39.748Z,68.00
2018-08-19T08:36:44.881Z,67.30
2018-08-19T08:40:11.917Z,62.30
2018-08-19T08:43:16.628Z,60.90
2018-08-19T08:46:21.621Z,60.20
2018-08-19T08:49:27.404Z,62.70
2018-08-19T08:52:32.252Z,63.30
2018-08-19T08:55:36.705Z,56.80
2018-08-19T08:58:41.217Z,56.80
2018-08-19T09:01:46.163Z,52.90
2018-08-19T09:04:52.130Z,48.70
2018-08-19T09:07:58.848Z,48.90
2018-08-19T09:11:04.955Z,47.50
2018-08-19T09:14:10.209Z,44.60
2018-08-19T09:17:14.728Z,42.10
2018-08-19T09:20:20.194Z,40.40
2018-08-19T09:24:54.357Z,40.40
2018-08-19T09:27:58.795Z,42.00
2018-08-19T09:31:03.222Z,46.00
2018-08-19T09:34:08.384Z,44.50
2018-08-19T09:37:13.649Z,41.50
2018-08-19T09:40:18.380Z,39.20
2018-08-19T09:43:23.032Z,40.30
2018-08-19T09:46:27.623Z,40.10
2018-08-19T09:49:32.728Z,43.80
2018-08-19T09:52:37.437Z,45.30
2018-08-19T09:55:47.954Z,43.70
2018-08-19T09:58:57.811Z,41.10
2018-08-19T10:02:05.987Z,39.80
2018-08-19T10:05:14.335Z,37.30
2018-08-19T10:08:21.582Z,36.40
2018-08-19T10:11:26.059Z,36.80
2018-08-19T10:14:31.355Z,34.50
2018-08-19T10:17:36.068Z,34.40
2018-08-19T10:20:40.632Z,34.70
2018-08-19T10:23:45.298Z,37.00
2018-08-19T10:26:50.308Z,34.30
2018-08-19T10:29:54.881Z,34.20
2018-08-19T10:33:06.500Z,34.10
2018-08-19T10:36:11.136Z,32.60
2018-08-19T10:39:16.871Z,32.20
2018-08-19T10:42:24.703Z,31.70
2018-08-19T10:45:29.425Z,32.50
2018-08-19T10:48:34.368Z,33.70
2018-08-19T10:51:41.581Z,33.60
2018-08-19T10:54:47.096Z,33.80
2018-08-19T10:57:52.530Z,35.00
2018-08-19T11:00:57.469Z,34.90
2018-08-19T11:04:02.117Z,33.90
2018-08-19T11:07:06.787Z,33.20
2018-08-19T11:10:25.289Z,32.60
2018-08-19T11:13:30.103Z,32.50
2018-08-19T11:16:35.319Z,32.40
2018-08-19T11:19:39.699Z,33.00
2018-08-19T11:22:44.053Z,35.10
2018-08-19T11:25:49.132Z,35.20
2018-08-19T11:28:56.087Z,35.90
2018-08-19T11:32:01.890Z,35.20
2018-08-19T11:35:07.277Z,34.10
2018-08-19T11:38:12.103Z,34.00
2018-08-19T11:41:19.341Z,35.80
2018-08-19T11:44:24.312Z,36.50
2018-08-19T11:47:28.942Z,36.60
2018-08-19T11:50:34.293Z,36.40
2018-08-19T11:53:40.573Z,36.20
2018-08-19T11:57:07.680Z,37.50
2018-08-19T12:00:12.421Z,37.10
2018-08-19T12:03:17.022Z,37.80
2018-08-19T12:06:22.352Z,39.40
2018-08-19T12:09:26.642Z,39.80
2018-08-19T12:12:45.915Z,38.70
2018-08-19T12:15:50.216Z,38.80
2018-08-19T12:18:54.630Z,39.00
2018-08-19T12:21:59.911Z,39.40
2018-08-19T12:25:04.993Z,39.50
2018-08-19T12:28:09.376Z,39.90
2018-08-19T12:31:15.505Z,39.80
2018-08-19T12:34:20.307Z,39.70
2018-08-19T12:37:26.450Z,41.00
2018-08-19T12:40:30.822Z,41.10
2018-08-19T12:43:36.307Z,40.90
2018-08-19T12:46:45.916Z,40.70
2018-08-19T12:49:55.849Z,40.10
2018-08-19T12:53:01.776Z,41.00
2018-08-19T12:56:06.889Z,41.10
2018-08-19T12:59:11.816Z,41.90
2018-08-19T13:02:16.857Z,42.00
2018-08-19T13:05:21.895Z,41.60
2018-08-19T13:08:27.202Z,42.20
2018-08-19T13:11:32.336Z,42.10
2018-08-19T13:14:36.814Z,42.80
2018-08-19T13:17:41.629Z,42.70
2018-08-19T13:20:46.733Z,43.50
2018-08-19T13:23:51.437Z,42.50
2018-08-19T13:26:56.715Z,43.30
2018-08-19T13:30:01.463Z,43.00
2018-08-19T13:33:06.462Z,43.00
2018-08-19T13:36:11.483Z,43.30
2018-08-19T13:39:15.865Z,42.80
2018-08-19T13:42:20.490Z,43.50
2018-08-19T13:45:27.033Z,43.60
2018-08-19T13:48:32.297Z,43.60
2018-08-19T13:51:37.527Z,43.30
2018-08-19T13:55:14.896Z,43.90
2018-08-19T13:58:19.199Z,43.60
2018-08-19T14:01:23.488Z,43.90
2018-08-19T14:04:27.955Z,42.70
2018-08-19T14:07:33.247Z,43.50
2018-08-19T14:10:37.423Z,43.10
2018-08-19T14:13:41.774Z,43.30
2018-08-19T14:16:46.149Z,42.60
2018-08-19T14:19:50.660Z,43.20
2018-08-19T14:22:55.598Z,43.50
2018-08-19T14:26:01.197Z,42.90
2018-08-19T14:29:06.441Z,42.50
2018-08-19T14:32:28.518Z,42.90
2018-08-19T14:35:33.307Z,43.00
2018-08-19T14:38:37.775Z,42.30
2018-08-19T14:41:42.856Z,42.80
2018-08-19T14:44:47.672Z,42.70
2018-08-19T14:47:53.345Z,41.70
2018-08-19T14:50:58.601Z,41.30
2018-08-19T14:54:15.256Z,42.30
2018-08-19T14:57:20.566Z,41.00
2018-08-19T15:00:25.332Z,41.70
2018-08-19T15:03:31.649Z,40.30
2018-08-19T15:06:35.906Z,40.50
2018-08-19T15:09:40.399Z,40.40
2018-08-19T15:12:45.627Z,41.00
2018-08-19T15:15:49.821Z,41.60
2018-08-19T15:18:54.312Z,41.50
2018-08-19T15:21:59.870Z,40.40
2018-08-19T15:25:04.054Z,39.10
2018-08-19T15:28:08.300Z,39.10
2018-08-19T15:31:17.991Z,40.30
2018-08-19T15:34:22.148Z,40.40
2018-08-19T15:37:26.317Z,39.80
2018-08-19T15:40:38.347Z,40.20
2018-08-19T15:43:42.848Z,40.40
2018-08-19T15:46:47.794Z,39.40
2018-08-19T15:50:04.417Z,39.20
2018-08-19T15:53:10.925Z,38.80
2018-08-19T15:56:15.273Z,38.90
2018-08-19T15:59:20.736Z,38.00
2018-08-19T16:02:25.360Z,38.80
2018-08-19T16:05:29.723Z,38.40
2018-08-19T16:08:34.394Z,38.00
2018-08-19T16:11:39.309Z,37.70
2018-08-19T16:14:43.681Z,38.00
2018-08-19T16:17:47.803Z,37.80
2018-08-19T16:21:06.823Z,36.40
2018-08-19T16:24:11.136Z,36.60
2018-08-19T16:27:15.388Z,36.80
2018-08-19T16:30:19.879Z,37.00
2018-08-19T16:33:24.126Z,37.80
2018-08-19T16:36:28.694Z,38.00
2018-08-19T16:39:32.868Z,38.70
2018-08-19T16:42:37.180Z,38.80
2018-08-19T16:45:41.344Z,38.60
2018-08-19T16:48:45.844Z,38.60
2018-08-19T16:51:50.012Z,38.20
2018-08-19T16:54:54.627Z,38.50
2018-08-19T16:57:59.301Z,38.50
2018-08-19T17:01:03.721Z,38.80
2018-08-19T17:04:08.000Z,38.80
2018-08-19T17:07:12.462Z,38.40
2018-08-19T17:10:16.806Z,38.30
2018-08-19T17:13:20.931Z,38.50
2018-08-19T17:16:25.699Z,38.80
2018-08-19T17:19:30.048Z,39.00
2018-08-19T17:22:35.424Z,39.10
2018-08-19T17:25:40.155Z,39.40
2018-08-19T17:28:44.554Z,39.60
2018-08-19T17:31:48.812Z,39.50
2018-08-19T17:34:53.527Z,39.50
2018-08-19T17:37:57.750Z,40.30
2018-08-19T17:41:02.562Z,41.70
2018-08-19T17:44:06.785Z,42.30
2018-08-19T17:47:10.971Z,41.70
2018-08-19T17:50:19.304Z,43.40
2018-08-19T17:53:23.772Z,44.10
2018-08-19T17:56:27.955Z,43.80
2018-08-19T17:59:32.192Z,43.50
2018-08-19T18:02:36.341Z,43.90
2018-08-19T18:05:42.245Z,43.90
2018-08-19T18:08:51.577Z,44.60
2018-08-19T18:12:03.989Z,45.50
2018-08-19T18:15:09.708Z,45.80
2018-08-19T18:18:14.061Z,46.00
2018-08-19T18:21:18.210Z,46.50
2018-08-19T18:24:22.389Z,47.70
2018-08-19T18:27:26.660Z,47.60
2018-08-19T18:30:30.866Z,48.00
2018-08-19T18:33:45.229Z,48.30
2018-08-19T18:36:49.432Z,48.10
2018-08-19T18:39:53.689Z,49.00
2018-08-19T18:42:58.059Z,48.80
2018-08-19T18:46:02.228Z,49.60
2018-08-19T18:49:20.981Z,50.20
2018-08-19T18:52:25.455Z,51.00
2018-08-19T18:55:29.777Z,51.40
2018-08-19T18:58:33.911Z,52.00
2018-08-19T19:01:38.116Z,51.80
2018-08-19T19:04:42.264Z,51.90
2018-08-19T19:07:46.602Z,51.90
2018-08-19T19:10:57.891Z,52.60
2018-08-19T19:14:06.626Z,53.10
2018-08-19T19:17:11.146Z,53.80
2018-08-19T19:20:15.615Z,53.90
2018-08-19T19:23:24.736Z,54.50
2018-08-19T19:26:34.317Z,54.60
2018-08-19T19:29:38.494Z,55.30
2018-08-19T19:32:42.761Z,55.60
2018-08-19T19:35:47.241Z,56.30
2018-08-19T19:38:58.337Z,56.40
2018-08-19T19:42:09.214Z,56.70
2018-08-19T19:45:13.414Z,56.70
2018-08-19T19:48:17.930Z,57.10
2018-08-19T19:51:23.308Z,57.30
2018-08-19T19:54:29.801Z,57.60
2018-08-19T19:57:34.391Z,58.00
2018-08-19T20:00:51.850Z,58.30
2018-08-19T20:03:56.404Z,59.30
2018-08-19T20:07:00.931Z,59.30
2018-08-19T20:10:06.467Z,59.70
2018-08-19T20:13:11.229Z,60.40
2018-08-19T20:16:15.422Z,59.90
2018-08-19T20:19:20.051Z,61.20
2018-08-19T20:22:24.235Z,61.10
2018-08-19T20:25:28.489Z,61.60
2018-08-19T20:28:33.236Z,62.20
2018-08-19T20:31:37.526Z,62.50
2018-08-19T20:34:42.572Z,63.20
2018-08-19T20:37:47.702Z,63.90
2018-08-19T20:40:52.822Z,64.60
2018-08-19T20:43:57.314Z,64.80
2018-08-19T20:47:01.464Z,65.70
2018-08-19T20:50:05.870Z,66.80
2018-08-19T20:53:10.532Z,67.40
2018-08-19T20:56:14.745Z,68.00
2018-08-19T20:59:26.126Z,68.90
2018-08-19T21:02:31.059Z,69.40
2018-08-19T21:05:35.384Z,69.80
2018-08-19T21:08:41.746Z,71.90
2018-08-19T21:11:46.328Z,71.80
2018-08-19T21:14:50.829Z,72.40
2018-08-19T21:17:54.996Z,74.70
2018-08-19T21:20:59.168Z,76.40
2018-08-19T21:24:03.555Z,76.50
2018-08-19T21:27:07.745Z,77.60
2018-08-19T21:30:12.131Z,79.80
2018-08-19T21:33:17.090Z,80.90
2018-08-19T21:36:21.390Z,82.20
2018-08-19T21:39:25.637Z,83.70
2018-08-19T21:42:34.597Z,86.50
2018-08-19T21:45:39.453Z,86.20
2018-08-19T21:48:44.157Z,88.30
2018-08-19T21:51:49.142Z,88.10
2018-08-19T21:54:53.465Z,90.50
2018-08-19T21:57:57.802Z,90.20
2018-08-19T22:01:03.223Z,91.20
2018-08-19T22:04:07.565Z,91.70
2018-08-19T22:07:12.097Z,92.30
2018-08-19T22:10:16.512Z,92.40
2018-08-19T22:13:21.657Z,92.60
2018-08-19T22:16:25.911Z,93.10
2018-08-19T22:19:30.901Z,93.60
2018-08-19T22:22:35.063Z,93.90
2018-08-19T22:25:39.306Z,93.80
2018-08-19T22:28:43.735Z,93.80
2018-08-19T22:31:50.666Z,93.60
2018-08-19T22:34:55.370Z,93.40
2018-08-19T22:38:03.149Z,94.40
2018-08-19T22:41:07.688Z,95.00
2018-08-19T22:44:12.176Z,95.60
2018-08-19T22:47:16.945Z,96.50
2018-08-19T22:50:22.295Z,96.90
2018-08-19T22:53:27.412Z,97.30
2018-08-19T22:56:31.672Z,98.20
2018-08-19T22:59:35.859Z,98.70
2018-08-19T23:02:40.356Z,98.60
2018-08-19T23:05:44.533Z,98.80
2018-08-19T23:08:48.699Z,98.80
2018-08-19T23:11:52.839Z,99.40
2018-08-19T23:15:08.341Z,99.50
2018-08-19T23:18:12.527Z,99.90
2018-08-19T23:21:16.717Z,99.90
2018-08-19T23:24:21.065Z,99.90
2018-08-19T23:27:25.242Z,99.90
2018-08-19T23:30:29.646Z,99.90
2018-08-19T23:33:34.364Z,99.90
2018-08-19T23:36:38.514Z,99.90
2018-08-19T23:39:42.901Z,99.90
2018-08-19T23:42:47.072Z,99.90
2018-08-19T23:45:51.185Z,99.90
2018-08-19T23:48:55.345Z,99.90
2018-08-19T23:51:59.540Z,99.90
2018-08-19T23:55:03.743Z,99.90
2018-08-19T23:58:08.180Z,99.90
